Latest Weather Observations for Bougainville Reef

IDQ60801

Issued at 10:32 pm EST Wednesday 4 March 2015 (issued every 30 minutes, with the page automatically refreshed every 10 minutes)

About weather observations | Map of weather stations | Latest weather observations for QLD | Other Formats
Station Details ID: 200840 Name: BOUGAINVILLE REEF Lat: -15.49 Lon: 147.12 Height: 0.0 m
Data from the previous 72 hours. | See also: Recent months for locations in Queensland
Date/Time
EST
Temp
°C
App
Temp
°C
Dew
Point
Rel
Hum
%
Delta-T
°C
Wind Press
QNH
hPa
Press
MSL
hPa
Rain
since 9 am
mm
Dir
 
Spd
km/h
Gust
km/h
Spd
kts
Gust
kts
04/10:30pm 28.9 - - - - SE 28 32 15 17 1009.3 - -
04/10:00pm 28.9 - - - - SE 28 32 15 17 1009.0 1009.0 -
04/09:30pm 29.0 - - - - SE 28 32 15 17 1009.0 - -
04/09:00pm 29.1 - - - - SE 30 35 16 19 1008.8 1008.7 -
04/08:30pm 28.9 - - - - ESE 26 30 14 16 1008.6 - -
04/08:00pm 28.7 - - - - ESE 28 35 15 19 1008.4 1008.4 -
04/07:30pm 28.7 - - - - ESE 28 32 15 17 1008.2 - -
04/07:00pm 29.0 - - - - ESE 30 33 16 18 1007.8 1007.8 -
04/06:30pm 29.0 - - - - SE 30 35 16 19 1007.5 - -
04/06:00pm 29.0 - - - - ESE 28 33 15 18 1007.2 1007.4 -
04/05:30pm 28.9 - - - - ESE 28 33 15 18 1007.5 - -
04/05:00pm 29.0 - - - - ESE 28 33 15 18 1007.2 1007.1 -
04/04:30pm 28.9 - - - - ESE 30 33 16 18 1007.1 - -
04/04:00pm 28.7 - - - - ESE 30 33 16 18 1006.9 1006.9 -
04/03:30pm 28.8 - - - - ESE 30 32 16 17 1007.1 - -
04/03:00pm 28.9 - - - - ESE 28 33 15 18 1007.1 1007.2 -
04/02:30pm 28.7 - - - - SE 28 32 15 17 1007.2 - -
04/02:00pm 28.7 - - - - SE 30 33 16 18 1007.3 1007.3 -
04/01:30pm 28.8 - - - - ESE 30 35 16 19 1007.6 - -
04/01:00pm 28.9 - - - - SE 32 35 17 19 1007.9 1008.0 -
04/12:30pm 28.7 - - - - SE 30 35 16 19 1008.5 - -
04/12:00pm 29.0 - - - - ESE 28 33 15 18 1008.9 1009.0 -
04/11:30am 28.9 - - - - ESE 30 33 16 18 1009.1 - -
04/11:00am 28.9 - - - - ESE 28 35 15 19 1009.3 1009.2 -
04/10:30am 28.7 - - - - SE 26 30 14 16 1009.2 - -
04/10:00am 28.8 - - - - ESE 28 30 15 16 1009.3 1009.3 -
04/09:30am 28.6 - - - - ESE 26 30 14 16 1009.3 - -
04/09:00am 28.8 - - - - ESE 28 35 15 19 1009.2 1009.1 -
04/08:30am 28.7 - - - - ESE 30 35 16 19 1008.9 - -
04/08:00am 28.5 - - - - ESE 30 35 16 19 1008.7 1008.6 -
04/07:30am 28.5 - - - - ESE 32 35 17 19 1008.6 - -
04/07:00am 28.5 - - - - SE 32 35 17 19 1008.1 1007.9 -
04/06:30am 28.3 - - - - SE 33 37 18 20 1007.8 - -
04/06:00am 28.4 - - - - ESE 35 39 19 21 1007.3 1007.2 -
04/05:30am 28.3 - - - - ESE 37 41 20 22 1007.0 - -
04/05:00am 28.3 - - - - ESE 32 39 17 21 1006.7 1006.7 -
04/04:30am 28.1 - - - - ESE 35 41 19 22 1006.6 - -
04/04:00am 28.0 - - - - ESE 37 43 20 23 1006.6 1006.7 -
04/03:30am 28.1 - - - - ESE 35 43 19 23 1006.7 - -
04/03:00am 28.2 - - - - ESE 39 43 21 23 1006.8 1006.9 -
04/02:30am 27.5 - - - - ESE 32 35 17 19 1007.2 - -
04/02:00am 26.5 - - - - ESE 19 32 10 17 1007.7 1007.8 -
04/01:30am 24.9 - - - - ESE 30 43 16 23 1008.3 - -
04/01:06am 25.8 - - - - ESE 33 41 18 22 1008.8 - -
04/01:00am 24.5 - - - - ESE 17 15 9 8 1008.8 1008.9 -
04/12:30am 24.9 - - - - ESE 39 48 21 26 1009.3 - -
04/12:00am 26.1 - - - - E 32 46 17 25 1009.6 1009.5 -
 
Date/Time
EST
Temp
°C
App
Temp
°C
Dew
Point
Rel
Hum
%
Delta-T
°C
Wind Press
QNH
hPa
Press
MSL
hPa
Rain
since 9 am
mm
Dir
 
Spd
km/h
Gust
km/h
Spd
kts
Gust
kts
03/11:30pm 26.6 - - - - E 30 39 16 21 1009.6 - -
03/11:09pm 26.6 - - - - E 33 48 18 26 1009.7 - -
03/11:00pm 27.6 - - - - SE 26 50 14 27 1009.7 1009.5 -
03/10:54pm 27.3 - - - - SE 28 50 15 27 1009.7 - -
03/10:30pm 27.7 - - - - ESE 22 26 12 14 1009.5 - -
03/10:00pm 28.0 - - - - ESE 30 35 16 19 1009.5 1009.4 -
03/09:30pm 27.0 - - - - E 32 44 17 24 1009.2 - -
03/09:00pm 27.7 - - - - E 24 28 13 15 1009.1 1009.0 -
03/08:30pm 28.8 - - - - SE 30 35 16 19 1008.9 - -
03/08:00pm 28.6 - - - - SSE 33 39 18 21 1008.6 1008.5 -
03/07:30pm 28.6 - - - - SSE 32 39 17 21 1008.3 - -
03/07:00pm 28.7 - - - - SE 28 33 15 18 1008.0 1007.8 -
03/06:30pm 28.9 - - - - SE 28 33 15 18 1007.5 - -
03/06:00pm 28.7 - - - - SSE 28 33 15 18 1007.3 1007.2 -
03/05:30pm 28.3 - - - - SE 19 20 10 11 1007.2 - -
03/05:00pm 27.6 - - - - E 15 20 8 11 1007.1 1007.1 -
03/04:30pm 27.6 - - - - E 17 20 9 11 1007.1 - -
03/04:00pm 27.3 - - - - E 24 30 13 16 1006.8 1006.8 -
03/03:30pm 27.2 - - - - ENE 26 35 14 19 1006.9 - -
03/03:00pm 28.7 - - - - SE 28 33 15 18 1006.8 1007.0 -
03/02:30pm 28.5 - - - - SE 30 35 16 19 1007.1 - -
03/02:00pm 28.3 - - - - SSE 30 33 16 18 1007.4 1007.5 -
03/01:30pm 28.7 - - - - SE 28 33 15 18 1007.7 - -
03/01:00pm 28.7 - - - - SE 26 30 14 16 1008.3 1008.5 -
03/12:30pm 28.7 - - - - SE 24 30 13 16 1008.8 - -
03/12:00pm 28.8 - - - - SE 24 28 13 15 1009.1 1009.2 -
03/11:30am 28.7 - - - - SE 24 28 13 15 1009.2 - -
03/11:00am 28.6 - - - - SE 22 28 12 15 1009.5 1009.5 -
03/10:30am 28.6 - - - - ESE 24 30 13 16 1009.6 - -
03/10:00am 28.7 - - - - ESE 24 30 13 16 1010.0 1009.9 -
03/09:30am 28.6 - - - - SE 24 30 13 16 1009.9 - -
03/09:00am 28.6 - - - - SE 26 28 14 15 1009.8 1009.7 -
03/08:30am 28.6 - - - - SE 28 32 15 17 1009.7 - -
03/08:00am 28.5 - - - - SE 28 35 15 19 1009.3 1009.2 -
03/07:30am 28.6 - - - - SE 26 30 14 16 1009.0 - -
03/07:00am 28.2 - - - - S 20 33 11 18 1008.4 1008.3 -
03/06:30am 28.3 - - - - SE 24 30 13 16 1008.0 - -
03/06:00am 28.4 - - - - SE 26 30 14 16 1007.7 1007.6 -
03/05:30am 28.4 - - - - SE 28 33 15 18 1007.4 - -
03/05:00am 28.3 - - - - SE 28 33 15 18 1006.9 1006.9 -
03/04:30am 28.3 - - - - SE 28 32 15 17 1006.9 - -
03/04:00am 28.5 - - - - SSE 28 32 15 17 1007.0 1007.0 -
03/03:30am 28.4 - - - - SSE 30 33 16 18 1007.1 - -
03/03:00am 28.3 - - - - SSE 32 35 17 19 1007.2 1007.2 -
03/02:30am 28.3 - - - - SSE 30 33 16 18 1007.2 - -
03/02:00am 28.5 - - - - SSE 28 33 15 18 1007.5 1007.7 -
03/01:30am 28.5 - - - - SSE 30 35 16 19 1008.0 - -
03/01:00am 28.5 - - - - SSE 24 32 13 17 1008.4 1008.5 -
03/12:30am 28.6 - - - - SE 24 28 13 15 1008.6 - -
03/12:00am 28.8 - - - - SE 24 28 13 15 1008.8 1008.7 -
 
Date/Time
EST
Temp
°C
App
Temp
°C
Dew
Point
Rel
Hum
%
Delta-T
°C
Wind Press
QNH
hPa
Press
MSL
hPa
Rain
since 9 am
mm
Dir
 
Spd
km/h
Gust
km/h
Spd
kts
Gust
kts
02/11:30pm 28.6 - - - - SE 20 24 11 13 1008.9 - -
02/11:00pm 28.6 - - - - SE 19 20 10 11 1009.1 1009.2 -
02/10:30pm 28.4 - - - - SE 20 26 11 14 1009.2 - -
02/10:00pm 28.2 - - - - E 17 20 9 11 1009.3 1009.2 -
02/09:30pm 27.9 - - - - E 22 26 12 14 1009.0 - -
02/09:00pm 28.8 - - - - SSE 19 28 10 15 1008.6 1008.5 -
02/08:30pm 28.9 - - - - SSE 19 22 10 12 1008.1 - -
02/08:00pm 28.7 - - - - SSE 19 20 10 11 1007.8 1007.7 -
02/07:30pm 28.8 - - - - SE 20 24 11 13 1007.6 - -
02/07:00pm 28.8 - - - - SSE 20 26 11 14 1007.4 1007.3 -
02/06:30pm 28.8 - - - - SE 20 24 11 13 1007.1 - -
02/06:00pm 28.8 - - - - SE 22 22 12 12 1006.8 1006.7 -
02/05:30pm 28.8 - - - - SE 22 26 12 14 1006.7 - -
02/05:00pm 28.8 - - - - SSE 17 20 9 11 1006.2 1006.2 -
02/04:30pm 28.8 - - - - SE 17 19 9 10 1006.3 - -
02/04:00pm 28.7 - - - - SE 17 20 9 11 1006.4 1006.4 -
02/03:30pm 28.8 - - - - SE 17 20 9 11 1006.3 - -
02/03:00pm 28.7 - - - - SSE 13 19 7 10 1006.5 1006.5 -
02/02:30pm 28.8 - - - - SE 13 17 7 9 1006.6 - -
02/02:00pm 28.7 - - - - ESE 13 17 7 9 1006.9 1007.0 -
02/01:30pm 28.6 - - - - SE 11 15 6 8 1007.1 - -
02/01:00pm 28.9 - - - - S 2 9 1 5 1007.4 1007.6 -
02/12:30pm 28.5 - - - - SSE 7 9 4 5 1007.8 - -
02/12:00pm 28.5 - - - - SE 13 13 7 7 1008.2 1008.3 -
02/11:30am 28.3 - - - - SE 13 15 7 8 1008.5 - -
02/11:00am 28.3 - - - - SE 15 17 8 9 1008.7 1008.8 -
02/10:30am 28.5 - - - - ESE 15 17 8 9 1008.9 - -
02/10:00am 28.5 - - - - SE 15 17 8 9 1009.1 1009.1 -
02/09:30am 28.6 - - - - ESE 15 19 8 10 1009.0 - -
02/09:00am 28.6 - - - - SE 15 19 8 10 1009.0 1008.9 -
02/08:30am 28.5 - - - - SE 13 17 7 9 1008.9 - -
02/08:00am 28.7 - - - - ESE 11 15 6 8 1008.7 1008.6 -
02/07:30am 28.8 - - - - ESE 9 11 5 6 1008.4 - -
02/07:00am 28.7 - - - - E 11 13 6 7 1008.1 1008.0 -
02/06:30am 28.3 - - - - E 13 19 7 10 1007.8 - -
02/06:00am 28.3 - - - - SE 15 20 8 11 1007.5 1007.5 -
02/05:30am 28.1 - - - - ESE 15 17 8 9 1007.4 - -
02/05:00am 28.1 - - - - SE 13 17 7 9 1007.0 1006.9 -
02/04:30am 28.1 - - - - SE 13 15 7 8 1006.8 - -
02/04:00am 28.1 - - - - SE 17 19 9 10 1006.6 1006.6 -
02/03:30am 28.0 - - - - SE 15 17 8 9 1006.5 - -
02/03:00am 28.0 - - - - SE 13 15 7 8 1006.5 1006.7 -
02/02:30am 28.0 - - - - SE 11 15 6 8 1006.9 - -
02/02:00am 28.3 - - - - ESE 13 15 7 8 1007.5 1007.6 -
02/01:30am 28.2 - - - - SE 13 17 7 9 1007.8 - -
02/01:00am 28.3 - - - - SE 11 15 6 8 1008.2 1008.3 -
02/12:30am 28.3 - - - - SE 13 15 7 8 1008.4 - -
02/12:00am 28.4 - - - - ESE 11 13 6 7 1008.7 1008.7 -
 
Date/Time
EST
Temp
°C
App
Temp
°C
Dew
Point
Rel
Hum
%
Delta-T
°C
Wind Press
QNH
hPa
Press
MSL
hPa
Rain
since 9 am
mm
Dir
 
Spd
km/h
Gust
km/h
Spd
kts
Gust
kts
01/11:30pm 28.3 - - - - ESE 11 15 6 8 1008.7 - -
01/11:00pm 28.4 - - - - E 13 17 7 9 1009.1 1009.2 -

Other Formats:

Comma delimited format used in spreadsheet applications
http://www.bom.gov.au/fwo/IDQ60801/IDQ60801.95288.axf

JavaScript Object Notation format (JSON) in row-major order
http://www.bom.gov.au/fwo/IDQ60801/IDQ60801.95288.json